Time;durP1;ratioP1;P1;durP2;ratioP2;P2;SDS_P1;SDS_P2;PMS_P1;PMS_P2;Temp;Humidity;BMP_temperature;BMP_pressure;BME280_temperature;BME280_humidity;BME280_pressure;Samples;Min_cycle;Max_cycle;Signal;HPM_P1;HPM_P2
2023/03/09 00:02:13;;;;;;;33.72;18.80;;;10.80;70.50;;;;;;5160652;22;20138;-18
2023/03/09 00:04:39;;;;;;;28.98;17.27;;;10.80;70.20;;;;;;5071407;28;20168;-19
2023/03/09 00:07:05;;;;;;;25.58;16.52;;;10.70;70.30;;;;;;5071549;28;20415;-16
2023/03/09 00:09:30;;;;;;;25.13;15.57;;;10.70;70.40;;;;;;5071558;28;20031;-17
2023/03/09 00:11:56;;;;;;;21.67;14.07;;;10.70;70.30;;;;;;5075946;28;20414;-16
2023/03/09 00:14:22;;;;;;;25.17;15.13;;;10.70;70.20;;;;;;5075256;28;20470;-15
2023/03/09 00:16:48;;;;;;;32.00;18.83;;;10.70;70.30;;;;;;5074694;28;20025;-16
2023/03/09 00:19:30;;;;;;;30.10;19.52;;;10.70;70.30;;;;;;5073639;28;20029;-16
2023/03/09 00:21:57;;;;;;;23.70;16.30;;;10.80;70.30;;;;;;5074945;28;20099;-16
2023/03/09 00:24:28;;;;;;;24.05;16.52;;;10.80;70.50;;;;;;5074717;28;20024;-15
2023/03/09 00:27:00;;;;;;;26.42;17.17;;;10.80;70.50;;;;;;5074733;28;20029;-11
2023/03/09 00:29:27;;;;;;;32.10;19.25;;;10.70;70.20;;;;;;5074736;28;20031;-15
2023/03/09 00:31:53;;;;;;;29.33;18.80;;;10.80;70.60;;;;;;5074893;28;20028;-14
2023/03/09 00:34:20;;;;;;;27.67;17.48;;;10.80;70.70;;;;;;5162722;22;20059;-15
2023/03/09 00:36:46;;;;;;;29.55;17.30;;;10.80;70.40;;;;;;5074467;28;20021;-15
2023/03/09 00:39:15;;;;;;;35.17;21.85;;;10.80;70.40;;;;;;5074555;28;20028;-16
2023/03/09 00:41:41;;;;;;;26.52;16.63;;;10.80;69.90;;;;;;5074815;28;20036;-16
2023/03/09 00:44:08;;;;;;;32.30;22.17;;;10.70;70.40;;;;;;5074416;28;20051;-16
2023/03/09 00:46:35;;;;;;;32.85;20.45;;;10.70;70.50;;;;;;5074466;28;20112;-16
2023/03/09 00:49:05;;;;;;;32.58;20.52;;;10.70;70.10;;;;;;5074312;28;20082;-16
2023/03/09 00:51:36;;;;;;;35.95;20.85;;;10.60;71.40;;;;;;5074652;28;20066;-16
2023/03/09 00:54:02;;;;;;;31.73;19.60;;;10.60;72.40;;;;;;5074309;28;20043;-13
2023/03/09 00:56:29;;;;;;;35.13;20.58;;;10.50;72.10;;;;;;5074330;28;20021;-18
2023/03/09 00:58:57;;;;;;;29.17;18.15;;;10.50;72.60;;;;;;5074047;28;20103;-16
2023/03/09 01:01:23;;;;;;;29.77;18.42;;;10.50;71.10;;;;;;5074494;28;20025;-16
2023/03/09 01:06:19;;;;;;;33.03;19.92;;;10.50;71.30;;;;;;5049551;28;20133;-17
2023/03/09 01:08:45;;;;;;;29.48;19.88;;;10.60;71.10;;;;;;5053983;28;20143;-16
2023/03/09 01:11:13;;;;;;;34.83;22.35;;;10.60;71.80;;;;;;5053857;28;20060;-15
2023/03/09 01:13:40;;;;;;;32.15;20.50;;;10.50;71.80;;;;;;5054264;28;20017;-17
2023/03/09 01:16:07;;;;;;;35.40;20.60;;;10.60;71.90;;;;;;5054264;28;20024;-16
2023/03/09 01:18:33;;;;;;;29.35;19.48;;;10.50;72.40;;;;;;5054226;28;20044;-16
2023/03/09 01:21:00;;;;;;;35.85;21.52;;;10.50;72.30;;;;;;5053171;28;20116;-17
2023/03/09 01:23:26;;;;;;;31.92;20.90;;;10.50;72.00;;;;;;5053854;28;20434;-15
2023/03/09 01:25:52;;;;;;;29.17;19.17;;;10.50;72.10;;;;;;5053864;28;20052;-15
2023/03/09 01:28:18;;;;;;;27.83;17.60;;;10.50;71.90;;;;;;5035765;28;20411;-15
2023/03/09 01:30:44;;;;;;;26.52;17.70;;;10.50;72.00;;;;;;5053429;28;20032;-16
2023/03/09 01:33:10;;;;;;;25.45;16.58;;;10.50;72.30;;;;;;5053716;28;20036;-17
2023/03/09 01:35:38;;;;;;;34.33;20.20;;;10.50;72.10;;;;;;5053418;28;20017;-18
2023/03/09 01:38:05;;;;;;;27.90;17.45;;;10.50;72.10;;;;;;5053525;28;20051;-17
2023/03/09 01:40:31;;;;;;;34.10;21.58;;;10.50;72.20;;;;;;5053369;28;20025;-16
2023/03/09 01:43:34;;;;;;;31.13;19.70;;;10.50;72.20;;;;;;5053108;28;20044;-16
2023/03/09 01:46:22;;;;;;;34.20;22.35;;;10.50;72.30;;;;;;5051279;28;20045;-16
2023/03/09 01:49:02;;;;;;;29.38;18.92;;;10.50;72.20;;;;;;5052979;28;20029;-15
2023/03/09 01:51:56;;;;;;;28.20;17.98;;;10.50;72.10;;;;;;5053636;28;20099;-16
2023/03/09 01:54:39;;;;;;;29.67;19.33;;;10.50;72.20;;;;;;5053126;28;20059;-18
2023/03/09 01:57:17;;;;;;;28.83;18.30;;;10.50;72.20;;;;;;5053470;28;20071;-17
2023/03/09 01:59:45;;;;;;;30.27;18.88;;;10.50;72.20;;;;;;5053099;28;20025;-16
2023/03/09 02:02:13;;;;;;;26.90;18.05;;;10.50;72.20;;;;;;5053185;28;20107;-16
2023/03/09 02:04:50;;;;;;;27.50;17.10;;;10.50;72.40;;;;;;5052269;28;20121;-17
2023/03/09 02:07:20;;;;;;;32.15;18.92;;;10.50;72.30;;;;;;5052940;28;20115;-15
2023/03/09 02:09:58;;;;;;;28.13;18.15;;;10.50;72.20;;;;;;5053134;28;20055;-17
2023/03/09 02:12:25;;;;;;;31.60;20.60;;;10.50;72.50;;;;;;5052746;28;20108;-16
2023/03/09 02:14:51;;;;;;;32.28;20.80;;;10.50;72.70;;;;;;5052546;28;20044;-16
2023/03/09 02:17:18;;;;;;;27.67;17.73;;;10.50;72.60;;;;;;5053426;28;20044;-15
2023/03/09 02:20:04;;;;;;;31.52;20.48;;;10.50;72.30;;;;;;5052884;28;20087;-15
2023/03/09 02:22:36;;;;;;;29.85;19.27;;;10.50;72.20;;;;;;5052944;28;20387;-16
2023/03/09 02:25:02;;;;;;;33.90;20.50;;;10.40;72.20;;;;;;5052309;28;20108;-16
2023/03/09 02:27:30;;;;;;;31.65;19.48;;;10.40;72.50;;;;;;5052485;28;20117;-16
2023/03/09 02:29:57;;;;;;;27.50;17.75;;;10.40;72.60;;;;;;5052471;28;20067;-16
2023/03/09 02:32:23;;;;;;;27.05;17.98;;;10.40;73.40;;;;;;5051998;28;20029;-15
2023/03/09 02:34:49;;;;;;;28.55;18.13;;;10.30;73.50;;;;;;5051809;28;20021;-14
2023/03/09 02:37:35;;;;;;;23.73;15.57;;;10.30;73.00;;;;;;5052429;28;20087;-16
2023/03/09 02:40:32;;;;;;;29.02;17.30;;;10.30;73.10;;;;;;5052374;28;20032;-16
2023/03/09 02:43:01;;;;;;;23.40;15.55;;;10.40;73.00;;;;;;5052618;28;20029;-16
2023/03/09 02:45:29;;;;;;;20.30;13.50;;;10.30;73.30;;;;;;5052186;28;20468;-16
2023/03/09 02:47:56;;;;;;;23.80;14.85;;;10.30;73.00;;;;;;5052536;28;20025;-15
2023/03/09 02:50:22;;;;;;;34.20;19.90;;;10.40;72.90;;;;;;5052163;28;20036;-17
2023/03/09 02:52:48;;;;;;;23.98;15.52;;;10.40;73.90;;;;;;5052018;28;20031;-16
2023/03/09 02:55:14;;;;;;;23.50;14.25;;;10.40;73.40;;;;;;5052455;28;20101;-16
2023/03/09 02:57:41;;;;;;;24.60;15.75;;;10.40;73.10;;;;;;5034696;28;20025;-16
2023/03/09 03:00:09;;;;;;;26.83;16.50;;;10.50;73.00;;;;;;5052139;28;20468;-16
2023/03/09 03:02:37;;;;;;;28.38;18.40;;;10.40;73.00;;;;;;5052463;28;20043;-16
2023/03/09 03:05:04;;;;;;;26.65;16.70;;;10.50;73.50;;;;;;5051564;28;20435;-17
2023/03/09 03:07:29;;;;;;;33.42;18.83;;;10.40;73.40;;;;;;5052122;28;20037;-16
2023/03/09 03:09:55;;;;;;;30.92;19.05;;;10.50;73.80;;;;;;5052361;28;20033;-16
2023/03/09 03:12:21;;;;;;;31.15;18.65;;;10.40;73.20;;;;;;5052040;28;20382;-15
2023/03/09 03:14:47;;;;;;;30.65;17.50;;;10.40;73.80;;;;;;5051889;28;20018;-16
2023/03/09 03:17:13;;;;;;;25.85;16.85;;;10.30;74.40;;;;;;5052348;28;20111;-15
2023/03/09 03:19:39;;;;;;;27.38;18.13;;;10.30;75.10;;;;;;5033996;28;20607;-15
2023/03/09 03:22:05;;;;;;;31.98;19.08;;;10.20;75.30;;;;;;5052091;28;20530;-15
2023/03/09 03:24:39;;;;;;;34.58;20.35;;;10.20;76.40;;;;;;5051727;28;20380;-15
2023/03/09 03:27:05;;;;;;;26.73;17.65;;;10.20;76.00;;;;;;5051911;28;20033;-16
2023/03/09 03:29:32;;;;;;;30.77;18.40;;;10.20;76.50;;;;;;5051870;28;20057;-16
2023/03/09 03:31:58;;;;;;;28.02;17.15;;;10.20;75.60;;;;;;5052011;28;20523;-15
2023/03/09 03:34:24;;;;;;;30.30;18.20;;;10.20;76.40;;;;;;5051984;28;20029;-16
2023/03/09 03:36:51;;;;;;;26.90;17.40;;;10.10;75.90;;;;;;5051701;28;20048;-16
2023/03/09 03:39:17;;;;;;;30.52;18.20;;;10.10;75.90;;;;;;5052304;28;20025;-16
2023/03/09 03:41:43;;;;;;;34.38;18.48;;;10.10;76.00;;;;;;5051697;28;20039;-16
2023/03/09 03:44:09;;;;;;;32.55;18.77;;;10.10;75.80;;;;;;5052552;28;20021;-16
2023/03/09 03:46:35;;;;;;;26.58;16.55;;;10.10;75.40;;;;;;5055536;28;20116;-15
2023/03/09 03:49:00;;;;;;;26.30;15.35;;;10.10;75.50;;;;;;5055251;28;20029;-15
2023/03/09 03:51:26;;;;;;;34.17;19.33;;;10.10;75.30;;;;;;5055358;28;20028;-18
2023/03/09 03:53:53;;;;;;;30.75;18.42;;;10.10;75.40;;;;;;5055681;28;20388;-16
2023/03/09 03:56:19;;;;;;;24.42;15.32;;;10.10;74.90;;;;;;5055360;28;20539;-16
2023/03/09 03:58:45;;;;;;;23.40;14.07;;;10.10;75.30;;;;;;5055360;28;20036;-18
2023/03/09 04:01:11;;;;;;;28.98;18.40;;;10.10;75.60;;;;;;5055558;28;20025;-17
2023/03/09 04:03:37;;;;;;;32.53;18.83;;;10.20;75.30;;;;;;5055525;28;20029;-16
2023/03/09 04:06:03;;;;;;;31.90;18.48;;;10.20;74.90;;;;;;5054902;28;20500;-17
2023/03/09 04:08:30;;;;;;;36.42;18.52;;;10.20;75.00;;;;;;5055532;28;20029;-18
2023/03/09 04:10:56;;;;;;;29.33;18.00;;;10.20;75.30;;;;;;5055033;28;20127;-16
2023/03/09 04:13:22;;;;;;;27.98;16.90;;;10.10;75.60;;;;;;5055315;28;20032;-15
2023/03/09 04:15:48;;;;;;;29.23;16.65;;;10.10;76.30;;;;;;5055112;28;20386;-16
2023/03/09 04:18:15;;;;;;;34.10;17.83;;;10.00;76.10;;;;;;5055032;28;20096;-17
2023/03/09 04:20:43;;;;;;;33.13;18.25;;;10.00;76.30;;;;;;5054869;28;20079;-16
2023/03/09 04:23:10;;;;;;;27.90;16.83;;;10.00;76.40;;;;;;5055149;28;20017;-17
2023/03/09 04:25:36;;;;;;;24.40;14.95;;;10.10;76.50;;;;;;5054912;28;20392;-17
2023/03/09 04:28:02;;;;;;;27.55;16.45;;;10.00;76.20;;;;;;5054799;28;20388;-16
2023/03/09 04:30:28;;;;;;;32.78;18.77;;;10.10;75.80;;;;;;5054999;28;20025;-15
2023/03/09 04:32:54;;;;;;;29.27;18.17;;;10.10;75.80;;;;;;5054795;28;20055;-18
2023/03/09 04:35:20;;;;;;;30.95;18.52;;;10.10;75.50;;;;;;5054740;28;20082;-16
2023/03/09 04:37:46;;;;;;;23.98;14.35;;;10.10;76.10;;;;;;5054838;28;20029;-16
2023/03/09 04:40:14;;;;;;;22.90;14.32;;;10.10;75.50;;;;;;5054536;28;20086;-16
2023/03/09 04:42:40;;;;;;;23.38;13.65;;;10.10;75.60;;;;;;5054593;28;20029;-16
2023/03/09 04:45:06;;;;;;;25.05;13.52;;;10.10;75.30;;;;;;5054315;28;20094;-17
2023/03/09 04:47:32;;;;;;;25.90;14.35;;;10.20;75.20;;;;;;5054435;28;20504;-17
2023/03/09 04:49:58;;;;;;;30.98;17.35;;;10.20;75.10;;;;;;5054630;28;20416;-15
2023/03/09 04:52:24;;;;;;;23.42;13.73;;;10.20;75.30;;;;;;5054526;28;20499;-16
2023/03/09 04:54:50;;;;;;;22.38;14.63;;;10.20;75.20;;;;;;5054203;28;20029;-17
2023/03/09 04:57:17;;;;;;;25.45;15.10;;;10.20;75.00;;;;;;5053750;28;20115;-16
2023/03/09 04:59:43;;;;;;;29.23;17.00;;;10.30;75.30;;;;;;5054529;28;20044;-16
2023/03/09 05:02:09;;;;;;;30.98;17.38;;;10.30;75.10;;;;;;5054409;28;20033;-18
2023/03/09 05:04:36;;;;;;;28.65;16.92;;;10.20;74.70;;;;;;5053691;28;20076;-16
2023/03/09 05:07:02;;;;;;;24.05;13.65;;;10.20;75.00;;;;;;5054200;28;20033;-16
2023/03/09 05:09:28;;;;;;;25.85;15.30;;;10.20;74.90;;;;;;5054624;28;20025;-18
2023/03/09 05:11:54;;;;;;;23.25;14.50;;;10.20;75.60;;;;;;5053954;28;20029;-16
2023/03/09 05:14:21;;;;;;;22.38;13.50;;;10.20;75.50;;;;;;5054004;28;20503;-16
2023/03/09 05:16:53;;;;;;;20.27;12.30;;;10.20;75.40;;;;;;5053997;28;20051;-15
2023/03/09 05:19:20;;;;;;;23.53;14.23;;;10.20;74.90;;;;;;5053829;28;20392;-15
2023/03/09 05:21:46;;;;;;;25.38;14.95;;;10.30;74.70;;;;;;5053773;28;20263;-15
2023/03/09 05:24:12;;;;;;;22.85;14.18;;;10.30;74.80;;;;;;5053845;28;20033;-16
2023/03/09 05:26:39;;;;;;;23.92;14.23;;;10.30;74.80;;;;;;5053485;28;20021;-17
2023/03/09 05:29:05;;;;;;;22.35;12.68;;;10.30;74.60;;;;;;5053755;28;20368;-15
2023/03/09 05:31:30;;;;;;;20.13;12.68;;;10.30;74.50;;;;;;5053575;28;20032;-16
2023/03/09 05:33:56;;;;;;;19.67;12.02;;;10.30;74.60;;;;;;5053693;28;20021;-16
2023/03/09 05:36:24;;;;;;;20.77;12.63;;;10.30;74.50;;;;;;5053641;28;20116;-17
2023/03/09 05:38:51;;;;;;;20.90;13.57;;;10.30;74.30;;;;;;5137706;22;20051;-19
2023/03/09 05:41:18;;;;;;;28.20;15.95;;;10.40;74.30;;;;;;5093963;28;20093;-21
2023/03/09 05:43:44;;;;;;;24.52;14.82;;;10.30;74.40;;;;;;5144517;22;20072;-14
2023/03/09 05:46:12;;;;;;;24.52;14.85;;;10.30;74.40;;;;;;5073461;28;20041;-16
2023/03/09 05:48:38;;;;;;;24.55;14.35;;;10.20;74.40;;;;;;5073509;28;20108;-17
2023/03/09 05:51:05;;;;;;;25.20;14.90;;;10.20;74.50;;;;;;5073593;28;20101;-17
2023/03/09 05:53:32;;;;;;;26.20;15.15;;;10.20;74.40;;;;;;5073142;28;20076;-17
2023/03/09 05:55:58;;;;;;;23.13;15.23;;;10.10;74.60;;;;;;5073294;28;20103;-17
2023/03/09 05:58:24;;;;;;;26.65;15.32;;;10.10;74.60;;;;;;5073318;28;20025;-17
2023/03/09 06:00:52;;;;;;;24.98;16.17;;;10.10;74.70;;;;;;5072928;28;20110;-16
2023/03/09 06:03:18;;;;;;;29.38;16.67;;;10.10;74.70;;;;;;5144188;22;20023;-18
2023/03/09 06:05:45;;;;;;;26.52;15.63;;;10.10;74.80;;;;;;5092858;28;20036;-21
2023/03/09 06:08:11;;;;;;;25.80;15.63;;;10.20;74.80;;;;;;5092445;28;20035;-20
2023/03/09 06:10:37;;;;;;;28.67;16.80;;;10.20;74.90;;;;;;5074893;28;20027;-19
2023/03/09 06:13:04;;;;;;;27.48;16.77;;;10.20;75.00;;;;;;5093042;28;20032;-20
2023/03/09 06:15:31;;;;;;;29.52;18.25;;;10.30;74.90;;;;;;5093152;28;20104;-20
2023/03/09 06:17:57;;;;;;;29.27;17.02;;;10.40;75.00;;;;;;5131452;22;20056;-15
2023/03/09 06:20:23;;;;;;;28.70;17.17;;;10.40;74.90;;;;;;5072801;28;20540;-17
2023/03/09 06:22:49;;;;;;;33.97;18.52;;;10.50;74.80;;;;;;5072465;28;20024;-17
2023/03/09 06:25:15;;;;;;;33.45;18.92;;;10.50;74.90;;;;;;5072680;28;20329;-18
2023/03/09 06:27:41;;;;;;;32.75;18.63;;;10.50;75.60;;;;;;5054588;28;20036;-18
2023/03/09 06:30:08;;;;;;;30.80;18.25;;;10.50;75.10;;;;;;5072789;28;20032;-16
2023/03/09 06:32:34;;;;;;;27.77;16.15;;;10.40;74.90;;;;;;5072523;28;20553;-16
2023/03/09 06:35:00;;;;;;;29.67;16.83;;;10.40;75.20;;;;;;5072386;28;20028;-17
2023/03/09 06:40:04;;;;;;;28.13;16.48;;;10.50;75.10;;;;;;5048517;26;20057;-21
2023/03/09 06:42:30;;;;;;;32.15;19.95;;;10.50;75.40;;;;;;5052673;28;20025;-19
2023/03/09 06:44:56;;;;;;;30.52;17.30;;;10.60;75.90;;;;;;5052007;28;20039;-20
2023/03/09 06:47:22;;;;;;;34.17;19.73;;;10.80;75.60;;;;;;5052589;28;20029;-19
2023/03/09 06:49:48;;;;;;;34.20;19.77;;;11.00;75.30;;;;;;5052518;28;20437;-19
2023/03/09 06:52:14;;;;;;;33.55;19.25;;;11.30;74.80;;;;;;5034416;28;20021;-20
2023/03/09 06:54:40;;;;;;;33.53;19.08;;;11.40;74.50;;;;;;5051874;28;20028;-20
2023/03/09 06:57:07;;;;;;;32.25;19.20;;;11.40;74.10;;;;;;5052456;28;20029;-19
2023/03/09 06:59:33;;;;;;;25.55;15.73;;;11.30;74.00;;;;;;5052093;28;20029;-19
2023/03/09 07:01:58;;;;;;;34.15;19.73;;;11.20;74.20;;;;;;5052310;28;20032;-20
2023/03/09 07:04:24;;;;;;;32.60;18.65;;;11.30;74.50;;;;;;5034159;28;20029;-19
2023/03/09 07:06:50;;;;;;;31.65;18.65;;;11.30;74.40;;;;;;5051882;28;20036;-20
2023/03/09 07:09:16;;;;;;;23.90;15.15;;;11.20;74.30;;;;;;5051915;28;20029;-21
2023/03/09 07:11:42;;;;;;;24.25;14.43;;;11.10;74.50;;;;;;5052232;28;20017;-18
2023/03/09 07:14:08;;;;;;;21.65;13.93;;;11.10;74.70;;;;;;5052058;28;20102;-21
2023/03/09 07:16:34;;;;;;;24.23;14.77;;;11.10;74.70;;;;;;5052079;28;20392;-21
2023/03/09 07:19:00;;;;;;;27.08;16.45;;;11.20;74.60;;;;;;5052433;28;20017;-20
2023/03/09 07:21:26;;;;;;;26.15;16.65;;;11.20;74.50;;;;;;5128649;22;20056;-18
2023/03/09 07:23:52;;;;;;;28.08;18.05;;;11.40;74.50;;;;;;5076217;28;20543;-17
2023/03/09 07:26:20;;;;;;;38.38;23.23;;;11.50;74.20;;;;;;5076078;28;20039;-16
2023/03/09 07:28:47;;;;;;;24.38;15.07;;;11.70;74.10;;;;;;5075737;28;20036;-18
2023/03/09 07:31:13;;;;;;;26.40;16.08;;;11.90;73.60;;;;;;5058448;28;20013;-16
2023/03/09 07:33:40;;;;;;;25.63;15.40;;;12.10;73.40;;;;;;5076111;28;20050;-17
2023/03/09 07:36:07;;;;;;;29.58;16.95;;;12.40;73.00;;;;;;5075684;28;20383;-16
2023/03/09 07:41:06;;;;;;;32.88;18.75;;;13.20;71.60;;;;;;5051954;28;20057;-17
2023/03/09 07:43:32;;;;;;;25.20;16.45;;;13.60;70.70;;;;;;5055985;28;20017;-16
2023/03/09 07:45:58;;;;;;;24.77;15.85;;;13.80;70.10;;;;;;5054305;28;20460;-17
2023/03/09 07:48:25;;;;;;;29.95;18.27;;;14.10;69.40;;;;;;5055669;28;20029;-16
2023/03/09 07:50:59;;;;;;;24.45;14.40;;;14.40;68.30;;;;;;5130071;22;20140;-20
2023/03/09 07:53:31;;;;;;;23.25;14.80;;;14.60;68.40;;;;;;5055824;28;20048;-20
2023/03/09 07:56:02;;;;;;;23.10;14.60;;;14.80;68.10;;;;;;5055672;28;20027;-20
2023/03/09 07:58:28;;;;;;;19.60;13.35;;;14.90;68.00;;;;;;5110611;22;20049;-14
2023/03/09 08:00:54;;;;;;;24.38;15.45;;;15.00;67.80;;;;;;5055175;28;20071;-15
2023/03/09 08:03:19;;;;;;;23.80;15.20;;;15.20;67.40;;;;;;5055708;28;20031;-16
2023/03/09 08:05:46;;;;;;;31.80;18.30;;;15.30;66.80;;;;;;5055448;28;20391;-13
2023/03/09 08:08:13;;;;;;;25.02;16.40;;;15.40;65.80;;;;;;5055558;28;20436;-15
2023/03/09 08:10:40;;;;;;;24.63;15.85;;;15.60;65.30;;;;;;5055139;28;20559;-16
2023/03/09 08:13:05;;;;;;;22.52;15.07;;;15.60;64.90;;;;;;5137437;22;20148;-20
2023/03/09 08:15:31;;;;;;;22.50;14.23;;;15.70;64.80;;;;;;5095655;28;20059;-20
2023/03/09 08:17:57;;;;;;;24.00;14.70;;;15.80;64.50;;;;;;5095517;28;20498;-21
2023/03/09 08:20:23;;;;;;;20.70;13.98;;;15.90;65.10;;;;;;5095196;28;20479;-20
2023/03/09 08:22:48;;;;;;;25.50;15.65;;;16.00;64.40;;;;;;5094822;28;20035;-19
2023/03/09 08:25:14;;;;;;;25.38;14.75;;;16.20;64.40;;;;;;5149386;22;20101;-15
2023/03/09 08:27:43;;;;;;;21.33;14.55;;;16.30;63.70;;;;;;5095202;28;20012;-18
2023/03/09 08:30:10;;;;;;;21.45;14.15;;;16.40;63.40;;;;;;5094764;28;20048;-16
2023/03/09 08:32:37;;;;;;;25.17;15.65;;;16.40;63.60;;;;;;5094260;28;20028;-15
2023/03/09 08:35:03;;;;;;;21.42;13.73;;;16.40;62.00;;;;;;5095338;28;20072;-18
2023/03/09 08:37:30;;;;;;;24.30;14.82;;;16.40;63.00;;;;;;5095037;28;20373;-16
2023/03/09 08:39:56;;;;;;;26.27;15.23;;;16.50;61.40;;;;;;5094744;28;20058;-18
2023/03/09 08:42:22;;;;;;;25.90;15.48;;;16.50;61.70;;;;;;5094977;28;20031;-15
2023/03/09 08:44:48;;;;;;;23.85;14.00;;;16.70;60.60;;;;;;5094633;28;20051;-16
2023/03/09 08:47:14;;;;;;;23.45;14.93;;;16.80;61.80;;;;;;5158161;22;20161;-16
2023/03/09 08:49:41;;;;;;;24.00;14.30;;;17.00;61.00;;;;;;5054580;28;20493;-17
2023/03/09 08:52:08;;;;;;;23.33;15.32;;;17.20;61.10;;;;;;5055134;28;20029;-16
2023/03/09 08:54:34;;;;;;;20.10;12.98;;;17.40;59.70;;;;;;5054699;28;20155;-17
2023/03/09 08:57:00;;;;;;;22.48;15.52;;;17.40;60.00;;;;;;5054203;28;20052;-16
2023/03/09 08:59:26;;;;;;;24.83;15.38;;;17.40;59.20;;;;;;5054674;28;20029;-16
2023/03/09 09:01:52;;;;;;;25.00;16.63;;;17.40;59.10;;;;;;5054392;28;20021;-17
2023/03/09 09:04:18;;;;;;;26.60;15.27;;;17.50;59.30;;;;;;5054318;28;20078;-16
2023/03/09 09:06:44;;;;;;;27.80;16.58;;;17.60;59.90;;;;;;5053882;28;20025;-18
2023/03/09 09:09:09;;;;;;;24.13;14.50;;;17.80;58.70;;;;;;5155417;22;20071;-19
2023/03/09 09:11:36;;;;;;;21.52;14.23;;;17.90;59.00;;;;;;5094219;28;20034;-20
2023/03/09 09:14:02;;;;;;;25.45;16.55;;;18.00;57.90;;;;;;5094187;28;20020;-19
2023/03/09 09:16:29;;;;;;;26.83;16.58;;;17.90;57.60;;;;;;5111282;22;20152;-15
2023/03/09 09:18:56;;;;;;;25.88;16.02;;;17.90;57.60;;;;;;5054016;28;20056;-16
2023/03/09 09:21:23;;;;;;;24.35;16.10;;;17.70;58.00;;;;;;5054182;28;20467;-15
2023/03/09 09:23:49;;;;;;;26.58;17.15;;;17.60;58.20;;;;;;5054378;28;20032;-15
2023/03/09 09:26:16;;;;;;;24.45;15.98;;;17.60;58.30;;;;;;5144140;22;20144;-15
2023/03/09 09:28:43;;;;;;;23.85;15.80;;;17.80;57.90;;;;;;5053552;28;20109;-16
2023/03/09 09:31:12;;;;;;;24.60;15.63;;;18.00;57.60;;;;;;5053586;28;20021;-14
2023/03/09 09:33:38;;;;;;;24.17;16.00;;;18.40;56.70;;;;;;5053769;28;20115;-16
2023/03/09 09:36:10;;;;;;;22.20;16.80;;;18.50;56.50;;;;;;5053840;28;20049;-15
2023/03/09 09:38:38;;;;;;;23.55;15.65;;;18.70;56.50;;;;;;5053880;28;20025;-16
2023/03/09 09:41:17;;;;;;;27.25;17.05;;;18.70;55.60;;;;;;5035478;28;20029;-14
2023/03/09 09:43:44;;;;;;;27.55;17.60;;;18.70;55.80;;;;;;5053753;28;20036;-16
2023/03/09 09:46:14;;;;;;;20.58;14.00;;;18.50;55.90;;;;;;5053559;28;20453;-18
2023/03/09 09:48:42;;;;;;;27.77;17.75;;;18.40;56.40;;;;;;5166772;22;20135;-17
2023/03/09 09:51:10;;;;;;;22.45;15.30;;;18.40;56.50;;;;;;5093564;28;20028;-16
2023/03/09 09:53:50;;;;;;;25.23;16.38;;;18.50;56.60;;;;;;5093525;28;20487;-16
2023/03/09 09:56:21;;;;;;;24.55;15.68;;;18.70;56.20;;;;;;5093703;28;20459;-17
2023/03/09 09:58:53;;;;;;;28.75;17.33;;;18.90;56.50;;;;;;5093226;28;20027;-17
2023/03/09 10:01:39;;;;;;;25.50;17.70;;;19.20;55.00;;;;;;5092141;28;20024;-18
2023/03/09 10:04:13;;;;;;;21.98;15.60;;;19.40;52.70;;;;;;5093324;28;20613;-15
2023/03/09 10:06:39;;;;;;;;;;;19.60;53.90;;;;;;5093540;28;20036;-15
2023/03/09 10:09:11;;;;;;;22.05;14.20;;;19.90;53.80;;;;;;5093223;28;19947;-17
2023/03/09 10:11:47;;;;;;;22.88;13.55;;;20.20;53.50;;;;;;5093088;28;20070;-16
2023/03/09 10:14:31;;;;;;;24.30;16.45;;;20.40;51.40;;;;;;5093323;28;20032;-16
2023/03/09 10:17:16;;;;;;;27.13;16.27;;;20.70;52.10;;;;;;5093172;28;20052;-17
2023/03/09 10:19:42;;;;;;;21.95;14.32;;;20.90;51.90;;;;;;5093055;28;20493;-16
2023/03/09 10:22:21;;;;;;;26.02;16.48;;;21.00;51.30;;;;;;5091773;28;20133;-17
2023/03/09 10:24:52;;;;;;;21.33;14.52;;;21.30;51.20;;;;;;5092891;28;20067;-15
2023/03/09 10:27:41;;;;;;;25.80;17.30;;;21.50;50.90;;;;;;5092948;28;20027;-16
2023/03/09 10:30:07;;;;;;;19.90;14.15;;;21.60;49.70;;;;;;5093226;28;20038;-16
2023/03/09 10:32:42;;;;;;;29.40;18.13;;;21.90;50.20;;;;;;5092999;28;20067;-15
2023/03/09 10:35:33;;;;;;;27.02;17.65;;;21.90;48.00;;;;;;5093061;28;20028;-15
2023/03/09 10:37:59;;;;;;;23.52;14.77;;;21.80;49.00;;;;;;5093030;28;20048;-15
2023/03/09 10:40:34;;;;;;;24.15;14.77;;;21.90;49.60;;;;;;5092756;28;20094;-16
2023/03/09 10:43:01;;;;;;;25.05;16.08;;;21.70;50.00;;;;;;5092530;28;20024;-16
2023/03/09 10:45:29;;;;;;;27.48;17.65;;;21.80;49.50;;;;;;5092613;28;20032;-16
2023/03/09 10:48:06;;;;;;;26.20;18.13;;;21.60;48.70;;;;;;5092352;28;20048;-16
2023/03/09 10:50:40;;;;;;;28.20;18.33;;;21.70;48.60;;;;;;5092604;28;20115;-15
2023/03/09 10:53:28;;;;;;;24.33;15.95;;;21.40;47.70;;;;;;5092597;28;20031;-15
2023/03/09 10:56:13;;;;;;;27.25;17.75;;;20.90;49.20;;;;;;5093377;28;20066;-16
2023/03/09 10:58:39;;;;;;;24.70;16.45;;;20.90;50.30;;;;;;5092382;28;20023;-15
2023/03/09 11:01:20;;;;;;;25.63;17.42;;;20.90;50.90;;;;;;5092357;28;20059;-15
2023/03/09 11:03:46;;;;;;;25.67;18.23;;;21.20;50.70;;;;;;5092495;28;20030;-16
2023/03/09 11:06:15;;;;;;;26.75;17.27;;;21.50;49.60;;;;;;5092252;28;20410;-16
2023/03/09 11:08:44;;;;;;;24.50;16.67;;;21.90;48.20;;;;;;5092105;28;20111;-15
2023/03/09 11:11:19;;;;;;;21.90;15.73;;;22.00;48.60;;;;;;5092553;28;20016;-16
2023/03/09 11:13:46;;;;;;;26.35;18.92;;;22.20;47.70;;;;;;5092459;28;20058;-16
2023/03/09 11:16:25;;;;;;;22.85;16.73;;;22.30;48.50;;;;;;5092583;28;20059;-15
2023/03/09 11:19:11;;;;;;;28.23;18.67;;;22.20;48.90;;;;;;5092075;28;20020;-14
2023/03/09 11:21:59;;;;;;;25.13;17.90;;;22.40;47.90;;;;;;5092262;28;20039;-16
2023/03/09 11:24:39;;;;;;;26.45;19.13;;;22.60;47.50;;;;;;5092199;28;20554;-14
2023/03/09 11:27:13;;;;;;;25.58;17.35;;;22.50;47.70;;;;;;5092776;28;20459;-16
2023/03/09 11:29:56;;;;;;;24.40;15.35;;;22.60;46.10;;;;;;5093134;28;20028;-17
2023/03/09 11:32:22;;;;;;;;;;;22.70;47.30;;;;;;5092553;28;20032;-15
2023/03/09 11:34:49;;;;;;;26.30;18.63;;;22.60;46.30;;;;;;5090680;28;19953;-17
2023/03/09 11:37:36;;;;;;;27.27;18.00;;;22.20;46.60;;;;;;5090823;28;20028;-18
2023/03/09 11:40:16;;;;;;;26.95;18.55;;;22.10;47.40;;;;;;5092426;28;20035;-15
2023/03/09 11:42:58;;;;;;;26.20;18.00;;;21.90;48.30;;;;;;5091880;28;20085;-15
2023/03/09 11:45:29;;;;;;;25.15;18.65;;;21.80;47.80;;;;;;5092278;28;20033;-15
2023/03/09 11:48:04;;;;;;;24.52;17.65;;;22.10;47.90;;;;;;5091982;28;20059;-14
2023/03/09 11:50:36;;;;;;;25.60;17.80;;;22.20;48.20;;;;;;5092342;28;20035;-16
2023/03/09 11:53:11;;;;;;;22.30;16.27;;;22.50;47.30;;;;;;5091873;28;20404;-16
2023/03/09 11:55:48;;;;;;;26.88;18.08;;;22.70;46.80;;;;;;5092070;28;20112;-16
2023/03/09 11:58:26;;;;;;;27.55;18.35;;;22.80;45.10;;;;;;5091982;28;20501;-16
2023/03/09 12:01:03;;;;;;;22.23;14.95;;;22.70;46.30;;;;;;5092074;28;20058;-15
2023/03/09 12:03:39;;;;;;;26.98;18.17;;;22.90;46.30;;;;;;5091903;28;20052;-15
2023/03/09 12:06:27;;;;;;;23.08;17.15;;;22.50;46.10;;;;;;5092789;28;20032;-14
2023/03/09 12:08:55;;;;;;;26.80;18.80;;;22.50;46.90;;;;;;5095467;28;20102;-15
2023/03/09 12:11:33;;;;;;;26.48;19.02;;;22.80;46.00;;;;;;5095545;28;20521;-16
2023/03/09 12:16:38;;;;;;;23.25;17.00;;;22.60;45.60;;;;;;5072319;28;20499;-20
2023/03/09 12:19:16;;;;;;;25.02;17.60;;;22.60;45.30;;;;;;5075314;28;20525;-19
2023/03/09 12:22:02;;;;;;;26.55;18.90;;;22.70;44.90;;;;;;5142708;22;20055;-15
2023/03/09 12:24:31;;;;;;;20.73;15.52;;;22.50;45.60;;;;;;5095277;28;20466;-15
2023/03/09 12:27:18;;;;;;;26.63;19.45;;;22.40;46.00;;;;;;5095045;28;20368;-14
2023/03/09 12:29:47;;;;;;;23.02;16.83;;;22.40;46.30;;;;;;5093863;28;20024;-12
2023/03/09 12:32:34;;;;;;;23.52;16.08;;;22.60;46.00;;;;;;5095176;28;20039;-18
2023/03/09 12:35:20;;;;;;;25.55;17.45;;;22.80;45.80;;;;;;5094898;28;20487;-15
2023/03/09 12:37:52;;;;;;;25.00;18.50;;;22.90;45.70;;;;;;5094970;28;20028;-15
2023/03/09 12:40:26;;;;;;;28.77;20.27;;;23.10;44.80;;;;;;5095220;28;20107;-14
2023/03/09 12:43:21;;;;;;;28.33;19.85;;;23.00;45.20;;;;;;5095061;28;20028;-13
2023/03/09 12:45:49;;;;;;;24.20;18.23;;;22.90;45.60;;;;;;5094690;28;20051;-15
2023/03/09 12:48:33;;;;;;;25.48;18.45;;;22.80;46.50;;;;;;5094823;28;20036;-16
2023/03/09 12:51:34;;;;;;;25.60;17.98;;;22.80;46.90;;;;;;5094512;28;20025;-16